sensor_id;sensor_type;location;lat;lon;timestamp;temperature;humidity
10175;DHT22;18221;38.704;0.152;2023-05-13T00:01:53;14.50;99.90
10175;DHT22;18221;38.704;0.152;2023-05-13T00:04:22;14.50;99.90
10175;DHT22;18221;38.704;0.152;2023-05-13T00:06:50;14.50;99.90
10175;DHT22;18221;38.704;0.152;2023-05-13T00:09:21;14.40;99.90
10175;DHT22;18221;38.704;0.152;2023-05-13T00:11:49;14.40;99.90
10175;DHT22;18221;38.704;0.152;2023-05-13T00:14:17;14.40;99.90
10175;DHT22;18221;38.704;0.152;2023-05-13T00:16:46;14.30;99.90
10175;DHT22;18221;38.704;0.152;2023-05-13T00:19:16;14.30;99.90
10175;DHT22;18221;38.704;0.152;2023-05-13T00:21:48;14.30;99.90
10175;DHT22;18221;38.704;0.152;2023-05-13T00:24:18;14.30;99.90
10175;DHT22;18221;38.704;0.152;2023-05-13T00:26:46;14.30;99.90
10175;DHT22;18221;38.704;0.152;2023-05-13T00:29:15;14.40;99.90
10175;DHT22;18221;38.704;0.152;2023-05-13T00:31:43;14.30;99.90
10175;DHT22;18221;38.704;0.152;2023-05-13T00:34:11;14.30;99.90
10175;DHT22;18221;38.704;0.152;2023-05-13T00:36:41;14.30;99.90
10175;DHT22;18221;38.704;0.152;2023-05-13T00:39:10;14.30;99.90
10175;DHT22;18221;38.704;0.152;2023-05-13T00:41:39;14.20;99.90
10175;DHT22;18221;38.704;0.152;2023-05-13T00:44:07;14.20;99.90
10175;DHT22;18221;38.704;0.152;2023-05-13T00:46:36;14.20;99.90
10175;DHT22;18221;38.704;0.152;2023-05-13T00:49:04;14.20;99.90
10175;DHT22;18221;38.704;0.152;2023-05-13T00:51:33;14.20;99.90
10175;DHT22;18221;38.704;0.152;2023-05-13T00:54:04;14.20;99.90
10175;DHT22;18221;38.704;0.152;2023-05-13T00:56:33;14.20;99.90
10175;DHT22;18221;38.704;0.152;2023-05-13T00:59:04;14.20;99.90
10175;DHT22;18221;38.704;0.152;2023-05-13T01:01:40;14.30;99.90
10175;DHT22;18221;38.704;0.152;2023-05-13T01:04:16;14.30;99.90
10175;DHT22;18221;38.704;0.152;2023-05-13T01:07:01;14.20;99.90
10175;DHT22;18221;38.704;0.152;2023-05-13T01:09:46;14.20;99.90
10175;DHT22;18221;38.704;0.152;2023-05-13T01:12:28;14.10;99.90
10175;DHT22;18221;38.704;0.152;2023-05-13T01:15:04;14.10;99.90
10175;DHT22;18221;38.704;0.152;2023-05-13T01:17:39;14.00;99.90
10175;DHT22;18221;38.704;0.152;2023-05-13T01:20:15;14.00;99.90
10175;DHT22;18221;38.704;0.152;2023-05-13T01:22:49;14.00;99.90
10175;DHT22;18221;38.704;0.152;2023-05-13T01:25:17;13.90;99.90
10175;DHT22;18221;38.704;0.152;2023-05-13T01:27:45;14.10;99.90
10175;DHT22;18221;38.704;0.152;2023-05-13T01:30:14;13.70;99.90
10175;DHT22;18221;38.704;0.152;2023-05-13T01:32:43;13.50;99.90
10175;DHT22;18221;38.704;0.152;2023-05-13T01:35:13;13.30;99.90
10175;DHT22;18221;38.704;0.152;2023-05-13T01:37:43;13.70;99.90
10175;DHT22;18221;38.704;0.152;2023-05-13T01:40:13;13.00;99.90
10175;DHT22;18221;38.704;0.152;2023-05-13T01:42:42;13.00;99.90
10175;DHT22;18221;38.704;0.152;2023-05-13T01:45:11;12.90;99.90
10175;DHT22;18221;38.704;0.152;2023-05-13T01:47:40;12.80;99.90
10175;DHT22;18221;38.704;0.152;2023-05-13T01:50:09;12.70;99.90
10175;DHT22;18221;38.704;0.152;2023-05-13T01:52:38;12.70;99.90
10175;DHT22;18221;38.704;0.152;2023-05-13T01:55:07;12.60;99.90
10175;DHT22;18221;38.704;0.152;2023-05-13T01:57:37;12.50;99.90
10175;DHT22;18221;38.704;0.152;2023-05-13T02:00:09;12.40;99.90
10175;DHT22;18221;38.704;0.152;2023-05-13T02:02:37;12.40;99.90
10175;DHT22;18221;38.704;0.152;2023-05-13T02:05:06;12.40;99.90
10175;DHT22;18221;38.704;0.152;2023-05-13T02:07:35;12.40;99.90
10175;DHT22;18221;38.704;0.152;2023-05-13T02:10:04;12.40;99.90
10175;DHT22;18221;38.704;0.152;2023-05-13T02:12:33;12.30;99.90
10175;DHT22;18221;38.704;0.152;2023-05-13T02:15:04;12.30;99.90
10175;DHT22;18221;38.704;0.152;2023-05-13T02:17:33;12.30;99.90
10175;DHT22;18221;38.704;0.152;2023-05-13T02:20:01;12.30;99.90
10175;DHT22;18221;38.704;0.152;2023-05-13T02:22:30;12.30;99.90
10175;DHT22;18221;38.704;0.152;2023-05-13T02:24:59;12.20;99.90
10175;DHT22;18221;38.704;0.152;2023-05-13T02:27:27;12.20;99.90
10175;DHT22;18221;38.704;0.152;2023-05-13T02:29:55;12.30;99.90
10175;DHT22;18221;38.704;0.152;2023-05-13T02:32:25;12.30;99.90
10175;DHT22;18221;38.704;0.152;2023-05-13T02:34:55;12.30;99.90
10175;DHT22;18221;38.704;0.152;2023-05-13T02:37:25;12.30;99.90
10175;DHT22;18221;38.704;0.152;2023-05-13T02:39:53;12.30;99.90
10175;DHT22;18221;38.704;0.152;2023-05-13T02:42:22;12.30;99.90
10175;DHT22;18221;38.704;0.152;2023-05-13T02:44:51;12.30;99.90
10175;DHT22;18221;38.704;0.152;2023-05-13T02:47:19;12.30;99.90
10175;DHT22;18221;38.704;0.152;2023-05-13T02:49:49;12.30;99.90
10175;DHT22;18221;38.704;0.152;2023-05-13T02:52:17;12.20;99.90
10175;DHT22;18221;38.704;0.152;2023-05-13T02:54:45;12.20;99.90
10175;DHT22;18221;38.704;0.152;2023-05-13T02:57:14;12.20;99.90
10175;DHT22;18221;38.704;0.152;2023-05-13T02:59:42;12.20;99.90
10175;DHT22;18221;38.704;0.152;2023-05-13T03:02:10;12.10;99.90
10175;DHT22;18221;38.704;0.152;2023-05-13T03:04:39;12.10;99.90
10175;DHT22;18221;38.704;0.152;2023-05-13T03:07:11;12.10;99.90
10175;DHT22;18221;38.704;0.152;2023-05-13T03:09:40;12.10;99.90
10175;DHT22;18221;38.704;0.152;2023-05-13T03:12:08;12.20;99.90
10175;DHT22;18221;38.704;0.152;2023-05-13T03:14:36;12.10;99.90
10175;DHT22;18221;38.704;0.152;2023-05-13T03:17:05;12.10;99.90
10175;DHT22;18221;38.704;0.152;2023-05-13T03:19:35;12.10;99.90
10175;DHT22;18221;38.704;0.152;2023-05-13T03:22:04;12.10;99.90
10175;DHT22;18221;38.704;0.152;2023-05-13T03:24:34;12.10;99.90
10175;DHT22;18221;38.704;0.152;2023-05-13T03:27:02;12.10;99.90
10175;DHT22;18221;38.704;0.152;2023-05-13T03:29:31;12.10;99.90
10175;DHT22;18221;38.704;0.152;2023-05-13T03:31:59;12.10;99.90
10175;DHT22;18221;38.704;0.152;2023-05-13T03:34:27;12.10;99.90
10175;DHT22;18221;38.704;0.152;2023-05-13T03:36:56;12.10;99.90
10175;DHT22;18221;38.704;0.152;2023-05-13T03:39:24;12.10;99.90
10175;DHT22;18221;38.704;0.152;2023-05-13T03:41:54;12.10;99.90
10175;DHT22;18221;38.704;0.152;2023-05-13T03:44:23;12.10;99.90
10175;DHT22;18221;38.704;0.152;2023-05-13T03:46:51;12.10;99.90
10175;DHT22;18221;38.704;0.152;2023-05-13T03:49:19;12.10;99.90
10175;DHT22;18221;38.704;0.152;2023-05-13T03:51:48;12.00;99.90
10175;DHT22;18221;38.704;0.152;2023-05-13T03:54:16;12.00;99.90
10175;DHT22;18221;38.704;0.152;2023-05-13T03:56:44;12.00;99.90
10175;DHT22;18221;38.704;0.152;2023-05-13T03:59:14;12.00;99.90
10175;DHT22;18221;38.704;0.152;2023-05-13T04:01:42;12.00;99.90
10175;DHT22;18221;38.704;0.152;2023-05-13T04:04:11;12.00;99.90
10175;DHT22;18221;38.704;0.152;2023-05-13T04:06:39;12.00;99.90
10175;DHT22;18221;38.704;0.152;2023-05-13T04:09:08;12.00;99.90
10175;DHT22;18221;38.704;0.152;2023-05-13T04:11:37;12.00;99.90
10175;DHT22;18221;38.704;0.152;2023-05-13T04:14:06;11.90;99.90
10175;DHT22;18221;38.704;0.152;2023-05-13T04:16:36;11.90;99.90
10175;DHT22;18221;38.704;0.152;2023-05-13T04:19:05;11.90;99.90
10175;DHT22;18221;38.704;0.152;2023-05-13T04:21:33;11.90;99.90
10175;DHT22;18221;38.704;0.152;2023-05-13T04:24:02;11.80;99.90
10175;DHT22;18221;38.704;0.152;2023-05-13T04:26:31;11.80;99.90
10175;DHT22;18221;38.704;0.152;2023-05-13T04:28:59;11.80;99.90
10175;DHT22;18221;38.704;0.152;2023-05-13T04:31:28;11.80;99.90
10175;DHT22;18221;38.704;0.152;2023-05-13T04:33:58;11.80;99.90
10175;DHT22;18221;38.704;0.152;2023-05-13T04:36:26;11.80;99.90
10175;DHT22;18221;38.704;0.152;2023-05-13T04:39:00;11.80;99.90
10175;DHT22;18221;38.704;0.152;2023-05-13T04:41:30;11.90;99.90
10175;DHT22;18221;38.704;0.152;2023-05-13T04:43:58;12.00;99.90
10175;DHT22;18221;38.704;0.152;2023-05-13T04:46:27;12.10;99.90
10175;DHT22;18221;38.704;0.152;2023-05-13T04:48:57;12.20;99.90
10175;DHT22;18221;38.704;0.152;2023-05-13T04:51:26;12.20;99.90
10175;DHT22;18221;38.704;0.152;2023-05-13T04:53:54;12.30;99.90
10175;DHT22;18221;38.704;0.152;2023-05-13T04:56:23;12.40;99.90
10175;DHT22;18221;38.704;0.152;2023-05-13T04:58:51;12.40;99.90
10175;DHT22;18221;38.704;0.152;2023-05-13T05:01:19;12.40;99.90
10175;DHT22;18221;38.704;0.152;2023-05-13T05:03:47;12.40;99.90
10175;DHT22;18221;38.704;0.152;2023-05-13T05:06:17;12.50;99.90
10175;DHT22;18221;38.704;0.152;2023-05-13T05:08:46;12.50;99.90
10175;DHT22;18221;38.704;0.152;2023-05-13T05:11:15;12.50;99.90
10175;DHT22;18221;38.704;0.152;2023-05-13T05:13:43;12.50;99.90
10175;DHT22;18221;38.704;0.152;2023-05-13T05:16:12;12.60;99.90
10175;DHT22;18221;38.704;0.152;2023-05-13T05:18:40;12.70;99.90
10175;DHT22;18221;38.704;0.152;2023-05-13T05:21:11;12.70;99.90
10175;DHT22;18221;38.704;0.152;2023-05-13T05:23:41;12.60;99.90
10175;DHT22;18221;38.704;0.152;2023-05-13T05:26:10;12.60;99.90
10175;DHT22;18221;38.704;0.152;2023-05-13T05:28:38;12.60;99.90
10175;DHT22;18221;38.704;0.152;2023-05-13T05:31:08;12.60;99.90
10175;DHT22;18221;38.704;0.152;2023-05-13T05:33:37;12.60;99.90
10175;DHT22;18221;38.704;0.152;2023-05-13T05:36:07;12.60;99.90
10175;DHT22;18221;38.704;0.152;2023-05-13T05:38:35;12.60;99.90
10175;DHT22;18221;38.704;0.152;2023-05-13T05:41:06;12.60;99.90
10175;DHT22;18221;38.704;0.152;2023-05-13T05:43:34;12.60;99.90
10175;DHT22;18221;38.704;0.152;2023-05-13T05:46:02;12.50;99.90
10175;DHT22;18221;38.704;0.152;2023-05-13T05:48:31;12.50;99.90
10175;DHT22;18221;38.704;0.152;2023-05-13T05:50:59;12.50;99.90
10175;DHT22;18221;38.704;0.152;2023-05-13T05:53:28;12.60;99.90
10175;DHT22;18221;38.704;0.152;2023-05-13T05:55:56;12.40;99.90
10175;DHT22;18221;38.704;0.152;2023-05-13T05:58:26;12.20;99.90
10175;DHT22;18221;38.704;0.152;2023-05-13T06:00:58;12.00;99.90
10175;DHT22;18221;38.704;0.152;2023-05-13T06:03:27;11.90;99.90
10175;DHT22;18221;38.704;0.152;2023-05-13T06:05:55;11.80;99.90
10175;DHT22;18221;38.704;0.152;2023-05-13T06:08:23;11.70;99.90
10175;DHT22;18221;38.704;0.152;2023-05-13T06:10:55;11.70;99.90
10175;DHT22;18221;38.704;0.152;2023-05-13T06:13:26;11.70;99.90
10175;DHT22;18221;38.704;0.152;2023-05-13T06:15:54;11.70;99.90
10175;DHT22;18221;38.704;0.152;2023-05-13T06:18:22;11.70;99.90
10175;DHT22;18221;38.704;0.152;2023-05-13T06:20:52;11.80;99.90
10175;DHT22;18221;38.704;0.152;2023-05-13T06:23:20;11.80;99.90
10175;DHT22;18221;38.704;0.152;2023-05-13T06:25:48;11.90;99.90
10175;DHT22;18221;38.704;0.152;2023-05-13T06:28:16;11.80;99.90
10175;DHT22;18221;38.704;0.152;2023-05-13T06:30:46;11.80;99.90
10175;DHT22;18221;38.704;0.152;2023-05-13T06:33:14;11.80;99.90
10175;DHT22;18221;38.704;0.152;2023-05-13T06:35:43;11.90;99.90
10175;DHT22;18221;38.704;0.152;2023-05-13T06:38:14;11.90;99.90
10175;DHT22;18221;38.704;0.152;2023-05-13T06:40:51;11.90;99.90
10175;DHT22;18221;38.704;0.152;2023-05-13T06:43:42;12.00;99.90
10175;DHT22;18221;38.704;0.152;2023-05-13T06:46:13;11.70;99.90
10175;DHT22;18221;38.704;0.152;2023-05-13T06:48:42;12.00;99.90
10175;DHT22;18221;38.704;0.152;2023-05-13T06:51:10;11.90;99.90
10175;DHT22;18221;38.704;0.152;2023-05-13T06:53:41;12.00;99.90
10175;DHT22;18221;38.704;0.152;2023-05-13T06:56:09;12.00;99.90
10175;DHT22;18221;38.704;0.152;2023-05-13T06:58:38;12.00;99.90
10175;DHT22;18221;38.704;0.152;2023-05-13T07:01:06;12.00;99.90
10175;DHT22;18221;38.704;0.152;2023-05-13T07:03:36;12.00;99.90
10175;DHT22;18221;38.704;0.152;2023-05-13T07:06:04;12.00;99.90
10175;DHT22;18221;38.704;0.152;2023-05-13T07:08:33;12.00;99.90
10175;DHT22;18221;38.704;0.152;2023-05-13T07:11:01;12.10;99.90
10175;DHT22;18221;38.704;0.152;2023-05-13T07:13:30;12.10;99.90
10175;DHT22;18221;38.704;0.152;2023-05-13T07:16:00;12.20;99.90
10175;DHT22;18221;38.704;0.152;2023-05-13T07:18:28;12.20;99.90
10175;DHT22;18221;38.704;0.152;2023-05-13T07:20:58;12.30;99.90
10175;DHT22;18221;38.704;0.152;2023-05-13T07:23:26;12.40;99.90
10175;DHT22;18221;38.704;0.152;2023-05-13T07:25:54;12.60;99.90
10175;DHT22;18221;38.704;0.152;2023-05-13T07:28:22;12.80;99.90
10175;DHT22;18221;38.704;0.152;2023-05-13T07:30:50;13.00;99.90
10175;DHT22;18221;38.704;0.152;2023-05-13T07:33:18;13.10;99.90
10175;DHT22;18221;38.704;0.152;2023-05-13T07:35:46;13.20;99.90
10175;DHT22;18221;38.704;0.152;2023-05-13T07:38:16;13.30;99.90
10175;DHT22;18221;38.704;0.152;2023-05-13T07:40:44;13.40;99.90
10175;DHT22;18221;38.704;0.152;2023-05-13T07:43:11;13.50;99.90
10175;DHT22;18221;38.704;0.152;2023-05-13T07:45:42;13.70;99.90
10175;DHT22;18221;38.704;0.152;2023-05-13T07:48:10;13.70;99.90
10175;DHT22;18221;38.704;0.152;2023-05-13T07:50:38;13.90;99.90
10175;DHT22;18221;38.704;0.152;2023-05-13T07:53:06;14.00;99.90
10175;DHT22;18221;38.704;0.152;2023-05-13T07:55:36;14.00;99.90
10175;DHT22;18221;38.704;0.152;2023-05-13T07:58:04;14.20;99.90
10175;DHT22;18221;38.704;0.152;2023-05-13T08:00:32;14.40;99.90
10175;DHT22;18221;38.704;0.152;2023-05-13T08:03:00;14.60;99.90
10175;DHT22;18221;38.704;0.152;2023-05-13T08:05:28;14.70;99.90
10175;DHT22;18221;38.704;0.152;2023-05-13T08:07:56;14.90;99.90
10175;DHT22;18221;38.704;0.152;2023-05-13T08:10:25;15.00;99.90
10175;DHT22;18221;38.704;0.152;2023-05-13T08:12:58;15.20;99.90
10175;DHT22;18221;38.704;0.152;2023-05-13T08:15:27;15.40;99.90
10175;DHT22;18221;38.704;0.152;2023-05-13T08:17:55;15.60;99.90
10175;DHT22;18221;38.704;0.152;2023-05-13T08:20:23;15.70;99.90
10175;DHT22;18221;38.704;0.152;2023-05-13T08:22:55;15.70;99.90
10175;DHT22;18221;38.704;0.152;2023-05-13T08:25:23;15.80;99.90
10175;DHT22;18221;38.704;0.152;2023-05-13T08:27:52;15.80;99.90
10175;DHT22;18221;38.704;0.152;2023-05-13T08:30:22;15.80;99.90
10175;DHT22;18221;38.704;0.152;2023-05-13T08:32:49;15.80;99.90
10175;DHT22;18221;38.704;0.152;2023-05-13T08:35:17;15.60;99.90
10175;DHT22;18221;38.704;0.152;2023-05-13T08:37:46;15.60;99.90
10175;DHT22;18221;38.704;0.152;2023-05-13T08:40:14;15.60;99.90
10175;DHT22;18221;38.704;0.152;2023-05-13T08:42:42;15.60;99.90
10175;DHT22;18221;38.704;0.152;2023-05-13T08:45:17;15.40;99.90
10175;DHT22;18221;38.704;0.152;2023-05-13T08:47:50;15.30;99.90
10175;DHT22;18221;38.704;0.152;2023-05-13T08:50:22;15.30;99.90
10175;DHT22;18221;38.704;0.152;2023-05-13T08:52:52;15.30;99.90
10175;DHT22;18221;38.704;0.152;2023-05-13T08:55:20;15.20;99.90
10175;DHT22;18221;38.704;0.152;2023-05-13T08:57:49;15.10;99.90
10175;DHT22;18221;38.704;0.152;2023-05-13T09:00:19;15.00;99.90
10175;DHT22;18221;38.704;0.152;2023-05-13T09:02:48;15.20;99.90
10175;DHT22;18221;38.704;0.152;2023-05-13T09:05:17;15.20;99.90
10175;DHT22;18221;38.704;0.152;2023-05-13T09:07:45;15.10;99.90
10175;DHT22;18221;38.704;0.152;2023-05-13T09:10:13;15.00;99.90
10175;DHT22;18221;38.704;0.152;2023-05-13T09:12:45;14.90;99.90
10175;DHT22;18221;38.704;0.152;2023-05-13T09:15:15;14.90;99.90
10175;DHT22;18221;38.704;0.152;2023-05-13T09:17:48;14.80;99.90
10175;DHT22;18221;38.704;0.152;2023-05-13T09:20:18;14.80;99.90
10175;DHT22;18221;38.704;0.152;2023-05-13T09:22:48;14.80;99.90
10175;DHT22;18221;38.704;0.152;2023-05-13T09:25:18;14.80;99.90
10175;DHT22;18221;38.704;0.152;2023-05-13T09:27:51;14.90;99.90
10175;DHT22;18221;38.704;0.152;2023-05-13T09:30:23;15.00;99.90
10175;DHT22;18221;38.704;0.152;2023-05-13T09:33:07;15.00;99.90
10175;DHT22;18221;38.704;0.152;2023-05-13T09:35:38;15.00;99.90
10175;DHT22;18221;38.704;0.152;2023-05-13T09:38:17;15.00;99.90
10175;DHT22;18221;38.704;0.152;2023-05-13T09:40:50;15.00;99.90
10175;DHT22;18221;38.704;0.152;2023-05-13T09:43:19;15.00;99.90
10175;DHT22;18221;38.704;0.152;2023-05-13T09:45:52;15.00;99.90
10175;DHT22;18221;38.704;0.152;2023-05-13T09:48:25;15.00;99.90
10175;DHT22;18221;38.704;0.152;2023-05-13T09:50:53;15.10;99.90
10175;DHT22;18221;38.704;0.152;2023-05-13T09:53:23;15.20;99.90
10175;DHT22;18221;38.704;0.152;2023-05-13T09:55:52;15.10;99.90
10175;DHT22;18221;38.704;0.152;2023-05-13T09:58:21;15.10;99.90
10175;DHT22;18221;38.704;0.152;2023-05-13T10:00:51;15.00;99.90
10175;DHT22;18221;38.704;0.152;2023-05-13T10:03:19;15.00;99.90
10175;DHT22;18221;38.704;0.152;2023-05-13T10:05:50;15.00;99.90
10175;DHT22;18221;38.704;0.152;2023-05-13T10:08:19;15.00;99.90
10175;DHT22;18221;38.704;0.152;2023-05-13T10:10:53;15.10;99.90
10175;DHT22;18221;38.704;0.152;2023-05-13T10:13:23;15.20;99.90
10175;DHT22;18221;38.704;0.152;2023-05-13T10:15:53;15.30;99.90
10175;DHT22;18221;38.704;0.152;2023-05-13T10:18:22;15.20;99.90
10175;DHT22;18221;38.704;0.152;2023-05-13T10:20:52;15.20;99.90
10175;DHT22;18221;38.704;0.152;2023-05-13T10:23:21;15.30;99.90
10175;DHT22;18221;38.704;0.152;2023-05-13T10:25:50;15.50;99.90
10175;DHT22;18221;38.704;0.152;2023-05-13T10:28:22;15.60;99.90
10175;DHT22;18221;38.704;0.152;2023-05-13T10:30:53;15.70;99.90
10175;DHT22;18221;38.704;0.152;2023-05-13T10:33:21;15.90;99.90
10175;DHT22;18221;38.704;0.152;2023-05-13T10:35:59;16.10;99.90
10175;DHT22;18221;38.704;0.152;2023-05-13T10:38:49;16.30;99.90
10175;DHT22;18221;38.704;0.152;2023-05-13T10:45:11;16.60;99.90
10175;DHT22;18221;38.704;0.152;2023-05-13T10:47:42;16.70;99.90
10175;DHT22;18221;38.704;0.152;2023-05-13T10:50:23;16.80;99.90
10175;DHT22;18221;38.704;0.152;2023-05-13T10:52:57;16.80;99.90
10175;DHT22;18221;38.704;0.152;2023-05-13T10:55:26;16.80;99.90
10175;DHT22;18221;38.704;0.152;2023-05-13T10:58:08;16.80;99.90
10175;DHT22;18221;38.704;0.152;2023-05-13T11:00:38;16.80;99.90
10175;DHT22;18221;38.704;0.152;2023-05-13T11:03:14;16.60;99.90
10175;DHT22;18221;38.704;0.152;2023-05-13T11:06:02;16.40;99.90
10175;DHT22;18221;38.704;0.152;2023-05-13T11:08:44;16.50;99.90
10175;DHT22;18221;38.704;0.152;2023-05-13T11:11:28;16.70;99.90
10175;DHT22;18221;38.704;0.152;2023-05-13T11:14:13;16.80;99.90
10175;DHT22;18221;38.704;0.152;2023-05-13T11:16:47;16.90;99.90
10175;DHT22;18221;38.704;0.152;2023-05-13T11:19:20;17.00;99.90
10175;DHT22;18221;38.704;0.152;2023-05-13T11:21:51;17.10;99.90
10175;DHT22;18221;38.704;0.152;2023-05-13T11:24:22;17.20;99.90
10175;DHT22;18221;38.704;0.152;2023-05-13T11:26:51;17.00;99.90
10175;DHT22;18221;38.704;0.152;2023-05-13T11:29:29;16.80;99.90
10175;DHT22;18221;38.704;0.152;2023-05-13T11:31:59;16.70;99.90
10175;DHT22;18221;38.704;0.152;2023-05-13T11:34:28;16.80;99.90
10175;DHT22;18221;38.704;0.152;2023-05-13T11:37:06;16.80;99.90
10175;DHT22;18221;38.704;0.152;2023-05-13T11:39:38;16.90;99.90
10175;DHT22;18221;38.704;0.152;2023-05-13T11:42:08;17.00;99.90
10175;DHT22;18221;38.704;0.152;2023-05-13T11:44:44;17.10;99.90
10175;DHT22;18221;38.704;0.152;2023-05-13T11:47:18;17.20;99.90
10175;DHT22;18221;38.704;0.152;2023-05-13T11:49:52;17.30;99.90
10175;DHT22;18221;38.704;0.152;2023-05-13T11:52:20;17.30;99.90
10175;DHT22;18221;38.704;0.152;2023-05-13T11:54:52;17.30;99.90
10175;DHT22;18221;38.704;0.152;2023-05-13T11:57:22;17.30;99.90
10175;DHT22;18221;38.704;0.152;2023-05-13T11:59:55;17.30;99.90
10175;DHT22;18221;38.704;0.152;2023-05-13T12:02:25;17.40;99.90
10175;DHT22;18221;38.704;0.152;2023-05-13T12:04:54;17.50;99.90
10175;DHT22;18221;38.704;0.152;2023-05-13T12:07:26;17.50;99.90
10175;DHT22;18221;38.704;0.152;2023-05-13T12:09:57;17.70;99.90
10175;DHT22;18221;38.704;0.152;2023-05-13T12:12:27;17.80;99.90
10175;DHT22;18221;38.704;0.152;2023-05-13T12:14:58;17.80;99.90
10175;DHT22;18221;38.704;0.152;2023-05-13T12:17:30;17.90;99.90
10175;DHT22;18221;38.704;0.152;2023-05-13T12:20:06;17.90;99.90
10175;DHT22;18221;38.704;0.152;2023-05-13T12:22:47;18.00;99.90
10175;DHT22;18221;38.704;0.152;2023-05-13T12:25:39;17.90;99.90
10175;DHT22;18221;38.704;0.152;2023-05-13T12:28:15;18.00;99.90
10175;DHT22;18221;38.704;0.152;2023-05-13T12:30:50;18.20;99.90
10175;DHT22;18221;38.704;0.152;2023-05-13T12:33:20;18.30;99.90
10175;DHT22;18221;38.704;0.152;2023-05-13T12:35:51;18.30;99.90
10175;DHT22;18221;38.704;0.152;2023-05-13T12:38:21;18.20;99.90
10175;DHT22;18221;38.704;0.152;2023-05-13T12:40:52;18.20;99.90
10175;DHT22;18221;38.704;0.152;2023-05-13T12:43:20;18.20;99.90
10175;DHT22;18221;38.704;0.152;2023-05-13T12:45:52;18.30;99.90
10175;DHT22;18221;38.704;0.152;2023-05-13T12:48:24;18.20;99.90
10175;DHT22;18221;38.704;0.152;2023-05-13T12:50:52;18.30;99.90
10175;DHT22;18221;38.704;0.152;2023-05-13T12:53:21;18.40;99.90
10175;DHT22;18221;38.704;0.152;2023-05-13T12:55:50;18.30;99.90
10175;DHT22;18221;38.704;0.152;2023-05-13T12:58:18;18.30;99.90
10175;DHT22;18221;38.704;0.152;2023-05-13T13:00:46;18.40;99.90
10175;DHT22;18221;38.704;0.152;2023-05-13T13:03:14;18.50;99.90
10175;DHT22;18221;38.704;0.152;2023-05-13T13:05:42;18.40;99.90
10175;DHT22;18221;38.704;0.152;2023-05-13T13:08:10;18.50;99.90
10175;DHT22;18221;38.704;0.152;2023-05-13T13:10:38;18.60;99.90
10175;DHT22;18221;38.704;0.152;2023-05-13T13:13:08;18.60;99.90
10175;DHT22;18221;38.704;0.152;2023-05-13T13:15:36;18.60;99.90
10175;DHT22;18221;38.704;0.152;2023-05-13T13:18:05;18.50;99.90
10175;DHT22;18221;38.704;0.152;2023-05-13T13:20:33;18.50;99.90
10175;DHT22;18221;38.704;0.152;2023-05-13T13:23:02;18.40;99.90
10175;DHT22;18221;38.704;0.152;2023-05-13T13:25:30;18.50;99.90
10175;DHT22;18221;38.704;0.152;2023-05-13T13:27:58;18.50;99.90
10175;DHT22;18221;38.704;0.152;2023-05-13T13:30:29;18.60;99.90
10175;DHT22;18221;38.704;0.152;2023-05-13T13:33:00;18.60;99.90
10175;DHT22;18221;38.704;0.152;2023-05-13T13:35:29;18.70;99.90
10175;DHT22;18221;38.704;0.152;2023-05-13T13:38:02;18.70;99.90
10175;DHT22;18221;38.704;0.152;2023-05-13T13:40:30;18.70;99.90
10175;DHT22;18221;38.704;0.152;2023-05-13T13:42:59;18.70;99.90
10175;DHT22;18221;38.704;0.152;2023-05-13T13:45:28;18.60;99.90
10175;DHT22;18221;38.704;0.152;2023-05-13T13:47:58;18.50;99.90
10175;DHT22;18221;38.704;0.152;2023-05-13T13:50:26;18.50;99.90
10175;DHT22;18221;38.704;0.152;2023-05-13T13:52:54;18.50;99.90
10175;DHT22;18221;38.704;0.152;2023-05-13T13:55:22;18.60;99.90
10175;DHT22;18221;38.704;0.152;2023-05-13T13:57:50;18.70;99.90
10175;DHT22;18221;38.704;0.152;2023-05-13T14:00:19;18.80;99.90
10175;DHT22;18221;38.704;0.152;2023-05-13T14:02:49;18.90;99.90
10175;DHT22;18221;38.704;0.152;2023-05-13T14:05:17;18.90;99.90
10175;DHT22;18221;38.704;0.152;2023-05-13T14:07:46;19.20;99.90
10175;DHT22;18221;38.704;0.152;2023-05-13T14:10:18;19.20;99.90
10175;DHT22;18221;38.704;0.152;2023-05-13T14:12:47;19.10;99.90
10175;DHT22;18221;38.704;0.152;2023-05-13T14:15:15;19.10;99.90
10175;DHT22;18221;38.704;0.152;2023-05-13T14:17:43;19.20;99.90
10175;DHT22;18221;38.704;0.152;2023-05-13T14:20:12;19.20;99.90
10175;DHT22;18221;38.704;0.152;2023-05-13T14:22:40;19.20;99.90
10175;DHT22;18221;38.704;0.152;2023-05-13T14:25:09;19.10;99.90
10175;DHT22;18221;38.704;0.152;2023-05-13T14:27:37;19.30;99.90
10175;DHT22;18221;38.704;0.152;2023-05-13T14:30:06;19.30;99.90
10175;DHT22;18221;38.704;0.152;2023-05-13T14:32:34;19.20;99.90
10175;DHT22;18221;38.704;0.152;2023-05-13T14:35:03;19.10;99.90
10175;DHT22;18221;38.704;0.152;2023-05-13T14:37:32;19.10;99.90
10175;DHT22;18221;38.704;0.152;2023-05-13T14:40:00;19.00;99.90
10175;DHT22;18221;38.704;0.152;2023-05-13T14:42:29;19.00;99.90
10175;DHT22;18221;38.704;0.152;2023-05-13T14:44:57;19.00;99.90
10175;DHT22;18221;38.704;0.152;2023-05-13T14:47:25;19.10;99.90
10175;DHT22;18221;38.704;0.152;2023-05-13T14:49:53;19.30;99.90
10175;DHT22;18221;38.704;0.152;2023-05-13T14:52:21;19.40;99.90
10175;DHT22;18221;38.704;0.152;2023-05-13T14:54:50;19.40;99.90
10175;DHT22;18221;38.704;0.152;2023-05-13T14:57:18;19.40;99.90
10175;DHT22;18221;38.704;0.152;2023-05-13T14:59:46;19.50;99.90
10175;DHT22;18221;38.704;0.152;2023-05-13T15:02:14;19.40;99.90
10175;DHT22;18221;38.704;0.152;2023-05-13T15:04:43;19.40;99.90
10175;DHT22;18221;38.704;0.152;2023-05-13T15:07:11;19.40;99.90
10175;DHT22;18221;38.704;0.152;2023-05-13T15:09:39;19.50;99.90
10175;DHT22;18221;38.704;0.152;2023-05-13T15:12:13;19.40;99.90
10175;DHT22;18221;38.704;0.152;2023-05-13T15:14:41;19.50;99.90
10175;DHT22;18221;38.704;0.152;2023-05-13T15:17:09;19.40;99.90
10175;DHT22;18221;38.704;0.152;2023-05-13T15:19:37;19.50;99.90
10175;DHT22;18221;38.704;0.152;2023-05-13T15:22:06;19.70;99.90
10175;DHT22;18221;38.704;0.152;2023-05-13T15:24:34;19.80;99.90
10175;DHT22;18221;38.704;0.152;2023-05-13T15:27:02;19.80;99.90
10175;DHT22;18221;38.704;0.152;2023-05-13T15:29:32;19.90;99.90
10175;DHT22;18221;38.704;0.152;2023-05-13T15:32:00;20.00;99.90
10175;DHT22;18221;38.704;0.152;2023-05-13T15:34:28;20.10;99.90
10175;DHT22;18221;38.704;0.152;2023-05-13T15:36:56;20.20;99.90
10175;DHT22;18221;38.704;0.152;2023-05-13T15:39:24;20.00;99.90
10175;DHT22;18221;38.704;0.152;2023-05-13T15:41:52;20.00;99.90
10175;DHT22;18221;38.704;0.152;2023-05-13T15:44:21;20.00;99.90
10175;DHT22;18221;38.704;0.152;2023-05-13T15:46:50;20.20;99.90
10175;DHT22;18221;38.704;0.152;2023-05-13T15:49:18;20.20;99.90
10175;DHT22;18221;38.704;0.152;2023-05-13T15:51:47;20.10;99.90